sensor_id;sensor_type;location;lat;lon;timestamp;temperature;humidity
37642;DHT22;23486;51.956;5.888;2022-10-16T00:01:12;12.10;99.90
37642;DHT22;23486;51.956;5.888;2022-10-16T00:03:39;12.10;99.90
37642;DHT22;23486;51.956;5.888;2022-10-16T00:06:05;12.00;99.90
37642;DHT22;23486;51.956;5.888;2022-10-16T00:08:31;12.00;99.90
37642;DHT22;23486;51.956;5.888;2022-10-16T00:11:04;12.00;99.90
37642;DHT22;23486;51.956;5.888;2022-10-16T00:13:31;11.90;99.90
37642;DHT22;23486;51.956;5.888;2022-10-16T00:15:58;11.90;99.90
37642;DHT22;23486;51.956;5.888;2022-10-16T00:18:25;11.80;99.90
37642;DHT22;23486;51.956;5.888;2022-10-16T00:20:51;11.80;99.90
37642;DHT22;23486;51.956;5.888;2022-10-16T00:23:16;11.80;99.90
37642;DHT22;23486;51.956;5.888;2022-10-16T00:25:42;11.80;99.90
37642;DHT22;23486;51.956;5.888;2022-10-16T00:28:08;11.80;99.90
37642;DHT22;23486;51.956;5.888;2022-10-16T00:30:33;11.80;99.90
37642;DHT22;23486;51.956;5.888;2022-10-16T00:32:59;11.80;99.90
37642;DHT22;23486;51.956;5.888;2022-10-16T00:35:25;11.70;99.90
37642;DHT22;23486;51.956;5.888;2022-10-16T00:37:50;11.70;99.90
37642;DHT22;23486;51.956;5.888;2022-10-16T00:40:16;11.70;99.90
37642;DHT22;23486;51.956;5.888;2022-10-16T00:42:41;11.70;99.90
37642;DHT22;23486;51.956;5.888;2022-10-16T00:45:08;11.70;99.90
37642;DHT22;23486;51.956;5.888;2022-10-16T00:47:42;11.70;99.90
37642;DHT22;23486;51.956;5.888;2022-10-16T00:50:26;11.70;99.90
37642;DHT22;23486;51.956;5.888;2022-10-16T00:52:53;11.70;99.90
37642;DHT22;23486;51.956;5.888;2022-10-16T00:55:19;11.70;99.90
37642;DHT22;23486;51.956;5.888;2022-10-16T00:57:46;11.70;99.90
37642;DHT22;23486;51.956;5.888;2022-10-16T01:00:19;11.70;99.90
37642;DHT22;23486;51.956;5.888;2022-10-16T01:02:51;11.70;99.90
37642;DHT22;23486;51.956;5.888;2022-10-16T01:05:17;11.60;99.90
37642;DHT22;23486;51.956;5.888;2022-10-16T01:08:13;11.60;99.90
37642;DHT22;23486;51.956;5.888;2022-10-16T01:10:51;11.60;99.90
37642;DHT22;23486;51.956;5.888;2022-10-16T01:13:25;11.60;99.90
37642;DHT22;23486;51.956;5.888;2022-10-16T01:15:55;11.60;99.90
37642;DHT22;23486;51.956;5.888;2022-10-16T01:18:39;11.60;99.90
37642;DHT22;23486;51.956;5.888;2022-10-16T01:21:09;11.60;99.90
37642;DHT22;23486;51.956;5.888;2022-10-16T01:31:33;11.60;99.90
37642;DHT22;23486;51.956;5.888;2022-10-16T01:34:02;11.70;99.90
37642;DHT22;23486;51.956;5.888;2022-10-16T01:36:37;11.70;99.90
37642;DHT22;23486;51.956;5.888;2022-10-16T01:39:06;11.70;99.90
37642;DHT22;23486;51.956;5.888;2022-10-16T01:41:43;11.70;99.90
37642;DHT22;23486;51.956;5.888;2022-10-16T01:44:25;11.70;99.90
37642;DHT22;23486;51.956;5.888;2022-10-16T01:46:53;11.70;99.90
37642;DHT22;23486;51.956;5.888;2022-10-16T01:49:21;11.80;99.90
37642;DHT22;23486;51.956;5.888;2022-10-16T01:51:50;11.80;99.90
37642;DHT22;23486;51.956;5.888;2022-10-16T01:54:17;11.90;99.90
37642;DHT22;23486;51.956;5.888;2022-10-16T01:56:46;11.90;99.90
37642;DHT22;23486;51.956;5.888;2022-10-16T01:59:16;12.00;99.90
37642;DHT22;23486;51.956;5.888;2022-10-16T02:01:47;12.10;99.90
37642;DHT22;23486;51.956;5.888;2022-10-16T02:04:36;12.10;99.90
37642;DHT22;23486;51.956;5.888;2022-10-16T02:07:03;12.20;99.90
37642;DHT22;23486;51.956;5.888;2022-10-16T02:09:30;12.20;99.90
37642;DHT22;23486;51.956;5.888;2022-10-16T02:11:59;12.20;99.90
37642;DHT22;23486;51.956;5.888;2022-10-16T02:14:28;12.20;99.90
37642;DHT22;23486;51.956;5.888;2022-10-16T02:16:54;12.20;99.90
37642;DHT22;23486;51.956;5.888;2022-10-16T02:19:21;12.20;99.90
37642;DHT22;23486;51.956;5.888;2022-10-16T02:21:51;12.30;99.90
37642;DHT22;23486;51.956;5.888;2022-10-16T02:27:00;12.30;99.90
37642;DHT22;23486;51.956;5.888;2022-10-16T02:29:28;12.30;99.90
37642;DHT22;23486;51.956;5.888;2022-10-16T02:32:01;12.30;99.90
37642;DHT22;23486;51.956;5.888;2022-10-16T02:34:28;12.30;99.90
37642;DHT22;23486;51.956;5.888;2022-10-16T02:36:56;12.30;99.90
37642;DHT22;23486;51.956;5.888;2022-10-16T02:39:22;12.30;99.90
37642;DHT22;23486;51.956;5.888;2022-10-16T02:41:48;12.30;99.90
37642;DHT22;23486;51.956;5.888;2022-10-16T02:44:14;12.20;99.90
37642;DHT22;23486;51.956;5.888;2022-10-16T02:46:40;12.20;99.90
37642;DHT22;23486;51.956;5.888;2022-10-16T02:49:05;12.10;99.90
37642;DHT22;23486;51.956;5.888;2022-10-16T02:51:31;12.10;99.90
37642;DHT22;23486;51.956;5.888;2022-10-16T02:53:56;12.10;99.90
37642;DHT22;23486;51.956;5.888;2022-10-16T02:56:22;12.10;99.90
37642;DHT22;23486;51.956;5.888;2022-10-16T02:58:47;12.00;99.90
37642;DHT22;23486;51.956;5.888;2022-10-16T03:01:13;12.00;99.90
37642;DHT22;23486;51.956;5.888;2022-10-16T03:03:42;12.00;99.90
37642;DHT22;23486;51.956;5.888;2022-10-16T03:06:07;12.00;99.90
37642;DHT22;23486;51.956;5.888;2022-10-16T03:08:33;12.00;99.90
37642;DHT22;23486;51.956;5.888;2022-10-16T03:10:58;12.00;99.90
37642;DHT22;23486;51.956;5.888;2022-10-16T03:13:24;12.10;99.90
37642;DHT22;23486;51.956;5.888;2022-10-16T03:15:49;12.20;99.90
37642;DHT22;23486;51.956;5.888;2022-10-16T03:18:15;12.20;99.90
37642;DHT22;23486;51.956;5.888;2022-10-16T03:20:42;12.10;99.90
37642;DHT22;23486;51.956;5.888;2022-10-16T03:23:07;12.10;99.90
37642;DHT22;23486;51.956;5.888;2022-10-16T03:25:33;12.10;99.90
37642;DHT22;23486;51.956;5.888;2022-10-16T03:27:59;12.00;99.90
37642;DHT22;23486;51.956;5.888;2022-10-16T03:30:25;12.00;99.90
37642;DHT22;23486;51.956;5.888;2022-10-16T03:32:50;12.00;99.90
37642;DHT22;23486;51.956;5.888;2022-10-16T03:35:22;12.00;99.90
37642;DHT22;23486;51.956;5.888;2022-10-16T03:37:48;12.00;99.90
37642;DHT22;23486;51.956;5.888;2022-10-16T03:40:14;12.00;99.90
37642;DHT22;23486;51.956;5.888;2022-10-16T03:42:41;12.10;99.90
37642;DHT22;23486;51.956;5.888;2022-10-16T03:45:07;12.00;99.90
37642;DHT22;23486;51.956;5.888;2022-10-16T03:47:33;12.00;99.90
37642;DHT22;23486;51.956;5.888;2022-10-16T03:49:59;12.00;99.90
37642;DHT22;23486;51.956;5.888;2022-10-16T03:52:25;12.00;99.90
37642;DHT22;23486;51.956;5.888;2022-10-16T03:54:50;12.00;99.90
37642;DHT22;23486;51.956;5.888;2022-10-16T03:57:16;12.10;99.90
37642;DHT22;23486;51.956;5.888;2022-10-16T03:59:42;12.00;99.90
37642;DHT22;23486;51.956;5.888;2022-10-16T04:02:07;12.00;99.90
37642;DHT22;23486;51.956;5.888;2022-10-16T04:04:33;12.00;99.90
37642;DHT22;23486;51.956;5.888;2022-10-16T04:06:58;12.00;99.90
37642;DHT22;23486;51.956;5.888;2022-10-16T04:09:24;11.90;99.90
37642;DHT22;23486;51.956;5.888;2022-10-16T04:11:50;11.90;99.90
37642;DHT22;23486;51.956;5.888;2022-10-16T04:14:16;12.00;99.90
37642;DHT22;23486;51.956;5.888;2022-10-16T04:16:41;12.00;99.90
37642;DHT22;23486;51.956;5.888;2022-10-16T04:19:07;12.00;99.90
37642;DHT22;23486;51.956;5.888;2022-10-16T04:21:32;12.10;99.90
37642;DHT22;23486;51.956;5.888;2022-10-16T04:23:58;12.10;99.90
37642;DHT22;23486;51.956;5.888;2022-10-16T04:26:23;12.20;99.90
37642;DHT22;23486;51.956;5.888;2022-10-16T04:28:49;12.20;99.90
37642;DHT22;23486;51.956;5.888;2022-10-16T04:31:15;12.20;99.90
37642;DHT22;23486;51.956;5.888;2022-10-16T04:33:42;12.20;99.90
37642;DHT22;23486;51.956;5.888;2022-10-16T04:36:08;12.20;99.90
37642;DHT22;23486;51.956;5.888;2022-10-16T04:38:34;12.20;99.90
37642;DHT22;23486;51.956;5.888;2022-10-16T04:41:00;12.30;99.90
37642;DHT22;23486;51.956;5.888;2022-10-16T04:43:25;12.20;99.90
37642;DHT22;23486;51.956;5.888;2022-10-16T04:45:52;12.20;99.90
37642;DHT22;23486;51.956;5.888;2022-10-16T04:48:18;12.20;99.90
37642;DHT22;23486;51.956;5.888;2022-10-16T04:50:44;12.20;99.90
37642;DHT22;23486;51.956;5.888;2022-10-16T04:53:09;12.10;99.90
37642;DHT22;23486;51.956;5.888;2022-10-16T04:55:35;12.10;99.90
37642;DHT22;23486;51.956;5.888;2022-10-16T04:58:00;12.00;99.90
37642;DHT22;23486;51.956;5.888;2022-10-16T05:00:26;12.00;99.90
37642;DHT22;23486;51.956;5.888;2022-10-16T05:02:52;12.00;99.90
37642;DHT22;23486;51.956;5.888;2022-10-16T05:05:18;12.00;99.90
37642;DHT22;23486;51.956;5.888;2022-10-16T05:07:45;12.00;99.90
37642;DHT22;23486;51.956;5.888;2022-10-16T05:10:11;12.10;99.90
37642;DHT22;23486;51.956;5.888;2022-10-16T05:12:36;12.00;99.90
37642;DHT22;23486;51.956;5.888;2022-10-16T05:15:02;12.00;99.90
37642;DHT22;23486;51.956;5.888;2022-10-16T05:17:28;12.00;99.90
37642;DHT22;23486;51.956;5.888;2022-10-16T05:19:54;11.90;99.90
37642;DHT22;23486;51.956;5.888;2022-10-16T05:22:19;11.80;99.90
37642;DHT22;23486;51.956;5.888;2022-10-16T05:24:45;11.80;99.90
37642;DHT22;23486;51.956;5.888;2022-10-16T05:27:11;11.80;99.90
37642;DHT22;23486;51.956;5.888;2022-10-16T05:29:47;11.70;99.90
37642;DHT22;23486;51.956;5.888;2022-10-16T05:32:17;11.70;99.90
37642;DHT22;23486;51.956;5.888;2022-10-16T05:34:43;11.70;99.90
37642;DHT22;23486;51.956;5.888;2022-10-16T05:37:09;11.60;99.90
37642;DHT22;23486;51.956;5.888;2022-10-16T05:39:37;11.60;99.90
37642;DHT22;23486;51.956;5.888;2022-10-16T05:42:03;11.60;99.90
37642;DHT22;23486;51.956;5.888;2022-10-16T05:44:29;11.50;99.90
37642;DHT22;23486;51.956;5.888;2022-10-16T05:46:55;11.50;99.90
37642;DHT22;23486;51.956;5.888;2022-10-16T05:49:20;11.50;99.90
37642;DHT22;23486;51.956;5.888;2022-10-16T05:51:46;11.50;99.90
37642;DHT22;23486;51.956;5.888;2022-10-16T05:54:11;11.40;99.90
37642;DHT22;23486;51.956;5.888;2022-10-16T05:56:37;11.40;99.90
37642;DHT22;23486;51.956;5.888;2022-10-16T05:59:03;11.40;99.90
37642;DHT22;23486;51.956;5.888;2022-10-16T06:01:29;11.40;99.90
37642;DHT22;23486;51.956;5.888;2022-10-16T06:03:57;11.40;99.90
37642;DHT22;23486;51.956;5.888;2022-10-16T06:06:25;11.40;99.90
37642;DHT22;23486;51.956;5.888;2022-10-16T06:08:52;11.40;99.90
37642;DHT22;23486;51.956;5.888;2022-10-16T06:11:25;11.40;99.90
37642;DHT22;23486;51.956;5.888;2022-10-16T06:13:53;11.30;99.90
37642;DHT22;23486;51.956;5.888;2022-10-16T06:16:20;11.30;99.90
37642;DHT22;23486;51.956;5.888;2022-10-16T06:18:45;11.40;99.90
37642;DHT22;23486;51.956;5.888;2022-10-16T06:21:17;11.40;99.90
37642;DHT22;23486;51.956;5.888;2022-10-16T06:23:43;11.40;99.90
37642;DHT22;23486;51.956;5.888;2022-10-16T06:26:13;11.50;99.90
37642;DHT22;23486;51.956;5.888;2022-10-16T06:28:39;11.60;99.90
37642;DHT22;23486;51.956;5.888;2022-10-16T06:31:07;11.60;99.90
37642;DHT22;23486;51.956;5.888;2022-10-16T06:33:33;11.70;99.90
37642;DHT22;23486;51.956;5.888;2022-10-16T06:36:15;11.80;99.90
37642;DHT22;23486;51.956;5.888;2022-10-16T06:38:42;11.80;99.90
37642;DHT22;23486;51.956;5.888;2022-10-16T06:41:13;12.00;99.90
37642;DHT22;23486;51.956;5.888;2022-10-16T06:43:39;12.00;99.90
37642;DHT22;23486;51.956;5.888;2022-10-16T06:46:07;12.10;99.90
37642;DHT22;23486;51.956;5.888;2022-10-16T06:48:36;12.10;99.90
37642;DHT22;23486;51.956;5.888;2022-10-16T06:51:06;12.20;99.90
37642;DHT22;23486;51.956;5.888;2022-10-16T06:53:35;12.30;99.90
37642;DHT22;23486;51.956;5.888;2022-10-16T06:56:15;12.30;99.90
37642;DHT22;23486;51.956;5.888;2022-10-16T06:58:42;12.40;99.90
37642;DHT22;23486;51.956;5.888;2022-10-16T07:01:09;12.50;99.90
37642;DHT22;23486;51.956;5.888;2022-10-16T07:03:39;12.50;99.90
37642;DHT22;23486;51.956;5.888;2022-10-16T07:06:06;12.60;99.90
37642;DHT22;23486;51.956;5.888;2022-10-16T07:08:37;12.60;99.90
37642;DHT22;23486;51.956;5.888;2022-10-16T07:11:05;12.70;99.90
37642;DHT22;23486;51.956;5.888;2022-10-16T07:13:39;12.70;99.90
37642;DHT22;23486;51.956;5.888;2022-10-16T07:16:16;12.80;99.90
37642;DHT22;23486;51.956;5.888;2022-10-16T07:18:42;12.80;99.90
37642;DHT22;23486;51.956;5.888;2022-10-16T07:21:12;12.90;99.90
37642;DHT22;23486;51.956;5.888;2022-10-16T07:23:38;12.90;99.90
37642;DHT22;23486;51.956;5.888;2022-10-16T07:26:05;12.90;99.90
37642;DHT22;23486;51.956;5.888;2022-10-16T07:28:31;13.00;99.90
37642;DHT22;23486;51.956;5.888;2022-10-16T07:31:04;12.90;99.90
37642;DHT22;23486;51.956;5.888;2022-10-16T07:33:31;13.00;99.90
37642;DHT22;23486;51.956;5.888;2022-10-16T07:35:57;13.00;99.90
37642;DHT22;23486;51.956;5.888;2022-10-16T07:38:23;13.00;99.90
37642;DHT22;23486;51.956;5.888;2022-10-16T07:41:02;13.00;99.90
37642;DHT22;23486;51.956;5.888;2022-10-16T07:43:28;13.10;99.90
37642;DHT22;23486;51.956;5.888;2022-10-16T07:45:54;13.20;99.90
37642;DHT22;23486;51.956;5.888;2022-10-16T07:48:21;13.20;99.90
37642;DHT22;23486;51.956;5.888;2022-10-16T07:50:47;13.20;99.90
37642;DHT22;23486;51.956;5.888;2022-10-16T07:53:13;13.20;99.90
37642;DHT22;23486;51.956;5.888;2022-10-16T07:55:39;13.30;99.90
37642;DHT22;23486;51.956;5.888;2022-10-16T07:58:05;13.40;99.90
37642;DHT22;23486;51.956;5.888;2022-10-16T08:00:31;13.50;99.90
37642;DHT22;23486;51.956;5.888;2022-10-16T08:02:58;13.60;99.90
37642;DHT22;23486;51.956;5.888;2022-10-16T08:05:28;13.60;99.90
37642;DHT22;23486;51.956;5.888;2022-10-16T08:07:54;13.70;99.90
37642;DHT22;23486;51.956;5.888;2022-10-16T08:10:22;13.80;99.90
37642;DHT22;23486;51.956;5.888;2022-10-16T08:12:48;13.90;99.90
37642;DHT22;23486;51.956;5.888;2022-10-16T08:15:13;14.00;99.90
37642;DHT22;23486;51.956;5.888;2022-10-16T08:17:39;14.10;99.90
37642;DHT22;23486;51.956;5.888;2022-10-16T08:20:05;14.10;99.90
37642;DHT22;23486;51.956;5.888;2022-10-16T08:22:31;14.20;99.90
37642;DHT22;23486;51.956;5.888;2022-10-16T08:24:57;14.30;99.90
37642;DHT22;23486;51.956;5.888;2022-10-16T08:27:22;14.40;99.90
37642;DHT22;23486;51.956;5.888;2022-10-16T08:29:51;14.50;99.90
37642;DHT22;23486;51.956;5.888;2022-10-16T08:32:17;14.50;99.90
37642;DHT22;23486;51.956;5.888;2022-10-16T08:34:42;14.50;99.90
37642;DHT22;23486;51.956;5.888;2022-10-16T08:37:08;14.50;99.90
37642;DHT22;23486;51.956;5.888;2022-10-16T08:39:36;14.60;99.90
37642;DHT22;23486;51.956;5.888;2022-10-16T08:42:14;14.60;99.90
37642;DHT22;23486;51.956;5.888;2022-10-16T08:45:19;14.50;99.90
37642;DHT22;23486;51.956;5.888;2022-10-16T08:48:05;14.50;99.90
37642;DHT22;23486;51.956;5.888;2022-10-16T08:50:36;14.60;99.90
37642;DHT22;23486;51.956;5.888;2022-10-16T08:53:04;14.50;99.90
37642;DHT22;23486;51.956;5.888;2022-10-16T08:55:45;14.60;99.90
37642;DHT22;23486;51.956;5.888;2022-10-16T08:58:17;14.60;99.90
37642;DHT22;23486;51.956;5.888;2022-10-16T09:00:46;14.60;99.90
37642;DHT22;23486;51.956;5.888;2022-10-16T09:11:46;14.70;99.90
37642;DHT22;23486;51.956;5.888;2022-10-16T09:20:30;14.80;99.90
37642;DHT22;23486;51.956;5.888;2022-10-16T09:23:19;14.80;99.90
37642;DHT22;23486;51.956;5.888;2022-10-16T09:25:47;14.90;99.90
37642;DHT22;23486;51.956;5.888;2022-10-16T09:28:14;14.90;99.90
37642;DHT22;23486;51.956;5.888;2022-10-16T09:30:40;15.00;99.90
37642;DHT22;23486;51.956;5.888;2022-10-16T09:33:07;15.00;99.90
37642;DHT22;23486;51.956;5.888;2022-10-16T09:35:39;15.00;99.90
37642;DHT22;23486;51.956;5.888;2022-10-16T09:38:05;15.10;99.90
37642;DHT22;23486;51.956;5.888;2022-10-16T09:40:37;15.10;99.90
37642;DHT22;23486;51.956;5.888;2022-10-16T09:46:03;15.20;99.90
37642;DHT22;23486;51.956;5.888;2022-10-16T09:48:43;15.20;99.90
37642;DHT22;23486;51.956;5.888;2022-10-16T09:51:31;15.20;99.90
37642;DHT22;23486;51.956;5.888;2022-10-16T09:53:59;15.20;99.90
37642;DHT22;23486;51.956;5.888;2022-10-16T09:56:33;15.20;99.90
37642;DHT22;23486;51.956;5.888;2022-10-16T09:59:08;15.20;99.90
37642;DHT22;23486;51.956;5.888;2022-10-16T10:01:48;15.20;99.90
37642;DHT22;23486;51.956;5.888;2022-10-16T10:04:15;15.30;99.90
37642;DHT22;23486;51.956;5.888;2022-10-16T10:06:44;15.40;99.90
37642;DHT22;23486;51.956;5.888;2022-10-16T10:11:44;15.60;99.90
37642;DHT22;23486;51.956;5.888;2022-10-16T10:14:23;15.60;99.90
37642;DHT22;23486;51.956;5.888;2022-10-16T10:16:51;15.70;99.90
37642;DHT22;23486;51.956;5.888;2022-10-16T10:19:20;15.70;99.90
37642;DHT22;23486;51.956;5.888;2022-10-16T10:21:46;15.80;99.90
37642;DHT22;23486;51.956;5.888;2022-10-16T10:24:17;15.90;99.90
37642;DHT22;23486;51.956;5.888;2022-10-16T10:26:57;16.00;99.90
37642;DHT22;23486;51.956;5.888;2022-10-16T10:29:44;16.00;99.90
37642;DHT22;23486;51.956;5.888;2022-10-16T10:32:17;16.10;99.90
37642;DHT22;23486;51.956;5.888;2022-10-16T10:37:35;16.20;99.90
37642;DHT22;23486;51.956;5.888;2022-10-16T10:40:18;16.20;99.90
37642;DHT22;23486;51.956;5.888;2022-10-16T10:51:08;16.50;99.90
37642;DHT22;23486;51.956;5.888;2022-10-16T10:56:48;16.60;99.90
37642;DHT22;23486;51.956;5.888;2022-10-16T11:07:17;16.90;99.90
37642;DHT22;23486;51.956;5.888;2022-10-16T11:09:57;17.00;99.90
37642;DHT22;23486;51.956;5.888;2022-10-16T11:12:35;17.00;99.90
37642;DHT22;23486;51.956;5.888;2022-10-16T11:15:19;17.10;99.90
37642;DHT22;23486;51.956;5.888;2022-10-16T11:18:08;17.10;99.90
37642;DHT22;23486;51.956;5.888;2022-10-16T11:20:48;17.20;99.90
37642;DHT22;23486;51.956;5.888;2022-10-16T11:25:51;17.30;99.90
37642;DHT22;23486;51.956;5.888;2022-10-16T11:28:20;17.30;99.90
37642;DHT22;23486;51.956;5.888;2022-10-16T11:31:10;17.40;99.90
37642;DHT22;23486;51.956;5.888;2022-10-16T11:33:51;17.40;99.90
37642;DHT22;23486;51.956;5.888;2022-10-16T11:36:29;17.30;99.90
37642;DHT22;23486;51.956;5.888;2022-10-16T11:41:51;17.40;99.90
37642;DHT22;23486;51.956;5.888;2022-10-16T11:47:47;17.60;99.90
37642;DHT22;23486;51.956;5.888;2022-10-16T11:55:20;17.50;99.90
37642;DHT22;23486;51.956;5.888;2022-10-16T11:57:54;17.60;99.90
37642;DHT22;23486;51.956;5.888;2022-10-16T12:00:34;17.60;99.90
37642;DHT22;23486;51.956;5.888;2022-10-16T12:03:22;17.60;99.90
37642;DHT22;23486;51.956;5.888;2022-10-16T12:06:05;17.70;99.90
37642;DHT22;23486;51.956;5.888;2022-10-16T12:08:34;17.70;99.90
37642;DHT22;23486;51.956;5.888;2022-10-16T12:13:52;17.50;99.90
37642;DHT22;23486;51.956;5.888;2022-10-16T12:16:28;17.60;99.90
37642;DHT22;23486;51.956;5.888;2022-10-16T12:19:24;17.60;99.90
37642;DHT22;23486;51.956;5.888;2022-10-16T12:21:51;17.60;99.90
37642;DHT22;23486;51.956;5.888;2022-10-16T12:24:27;17.70;99.90
37642;DHT22;23486;51.956;5.888;2022-10-16T12:26:55;17.80;99.90
37642;DHT22;23486;51.956;5.888;2022-10-16T12:29:30;17.80;99.90
37642;DHT22;23486;51.956;5.888;2022-10-16T12:31:57;17.90;99.90
37642;DHT22;23486;51.956;5.888;2022-10-16T12:34:46;17.90;99.90
37642;DHT22;23486;51.956;5.888;2022-10-16T12:37:23;18.00;99.90
37642;DHT22;23486;51.956;5.888;2022-10-16T12:39:49;17.90;99.90
37642;DHT22;23486;51.956;5.888;2022-10-16T12:44:55;17.90;99.90
37642;DHT22;23486;51.956;5.888;2022-10-16T12:52:49;18.10;99.90
37642;DHT22;23486;51.956;5.888;2022-10-16T12:55:19;18.20;99.90
37642;DHT22;23486;51.956;5.888;2022-10-16T13:00:36;18.40;99.90
37642;DHT22;23486;51.956;5.888;2022-10-16T13:09:17;18.30;99.90
37642;DHT22;23486;51.956;5.888;2022-10-16T13:12:27;18.30;99.90
37642;DHT22;23486;51.956;5.888;2022-10-16T13:20:46;18.30;99.90
37642;DHT22;23486;51.956;5.888;2022-10-16T13:23:39;18.30;99.90
37642;DHT22;23486;51.956;5.888;2022-10-16T13:29:20;18.10;99.90
37642;DHT22;23486;51.956;5.888;2022-10-16T13:31:46;18.10;99.90
37642;DHT22;23486;51.956;5.888;2022-10-16T13:34:18;18.10;99.90
37642;DHT22;23486;51.956;5.888;2022-10-16T13:36:47;18.10;99.90
37642;DHT22;23486;51.956;5.888;2022-10-16T13:39:29;18.20;99.90
37642;DHT22;23486;51.956;5.888;2022-10-16T13:44:28;18.40;99.90
37642;DHT22;23486;51.956;5.888;2022-10-16T13:47:01;18.40;99.90
37642;DHT22;23486;51.956;5.888;2022-10-16T13:49:27;18.50;99.90
37642;DHT22;23486;51.956;5.888;2022-10-16T13:51:59;18.50;99.90
37642;DHT22;23486;51.956;5.888;2022-10-16T13:54:26;18.50;99.90
37642;DHT22;23486;51.956;5.888;2022-10-16T13:56:54;18.50;99.90
37642;DHT22;23486;51.956;5.888;2022-10-16T13:59:27;18.50;99.90
37642;DHT22;23486;51.956;5.888;2022-10-16T14:01:58;18.40;99.90
37642;DHT22;23486;51.956;5.888;2022-10-16T14:04:32;18.50;99.90
37642;DHT22;23486;51.956;5.888;2022-10-16T14:06:58;18.50;99.90
37642;DHT22;23486;51.956;5.888;2022-10-16T14:09:29;18.40;99.90
37642;DHT22;23486;51.956;5.888;2022-10-16T14:12:01;18.40;99.90
37642;DHT22;23486;51.956;5.888;2022-10-16T14:14:34;18.30;99.90
37642;DHT22;23486;51.956;5.888;2022-10-16T14:17:01;18.30;99.90
37642;DHT22;23486;51.956;5.888;2022-10-16T14:19:29;18.30;99.90
37642;DHT22;23486;51.956;5.888;2022-10-16T14:21:56;18.30;99.90
37642;DHT22;23486;51.956;5.888;2022-10-16T14:26:53;18.40;99.90
37642;DHT22;23486;51.956;5.888;2022-10-16T14:29:21;18.30;99.90
37642;DHT22;23486;51.956;5.888;2022-10-16T14:32:00;18.30;99.90
37642;DHT22;23486;51.956;5.888;2022-10-16T14:34:34;18.30;99.90
37642;DHT22;23486;51.956;5.888;2022-10-16T14:37:24;18.30;99.90
37642;DHT22;23486;51.956;5.888;2022-10-16T14:39:51;18.30;99.90
37642;DHT22;23486;51.956;5.888;2022-10-16T14:42:18;18.30;99.90
37642;DHT22;23486;51.956;5.888;2022-10-16T14:44:46;18.30;99.90
37642;DHT22;23486;51.956;5.888;2022-10-16T14:47:21;18.40;99.90
37642;DHT22;23486;51.956;5.888;2022-10-16T14:49:50;18.30;99.90
37642;DHT22;23486;51.956;5.888;2022-10-16T14:52:16;18.30;99.90
37642;DHT22;23486;51.956;5.888;2022-10-16T14:54:42;18.20;99.90
37642;DHT22;23486;51.956;5.888;2022-10-16T14:57:20;18.10;99.90
37642;DHT22;23486;51.956;5.888;2022-10-16T14:59:48;18.00;99.90
37642;DHT22;23486;51.956;5.888;2022-10-16T15:04:46;18.00;99.90
37642;DHT22;23486;51.956;5.888;2022-10-16T15:07:12;18.00;99.90
37642;DHT22;23486;51.956;5.888;2022-10-16T15:09:38;18.00;99.90
37642;DHT22;23486;51.956;5.888;2022-10-16T15:12:03;18.10;99.90
37642;DHT22;23486;51.956;5.888;2022-10-16T15:14:29;18.00;99.90
37642;DHT22;23486;51.956;5.888;2022-10-16T15:16:55;18.10;99.90
37642;DHT22;23486;51.956;5.888;2022-10-16T15:19:20;18.00;99.90
37642;DHT22;23486;51.956;5.888;2022-10-16T15:21:46;18.00;99.90
37642;DHT22;23486;51.956;5.888;2022-10-16T15:24:13;17.90;99.90
37642;DHT22;23486;51.956;5.888;2022-10-16T15:26:39;17.80;99.90
37642;DHT22;23486;51.956;5.888;2022-10-16T15:29:04;17.80;99.90
37642;DHT22;23486;51.956;5.888;2022-10-16T15:31:30;17.70;99.90
37642;DHT22;23486;51.956;5.888;2022-10-16T15:33:56;17.60;99.90
37642;DHT22;23486;51.956;5.888;2022-10-16T15:36:36;17.50;99.90
37642;DHT22;23486;51.956;5.888;2022-10-16T15:39:19;17.40;99.90
37642;DHT22;23486;51.956;5.888;2022-10-16T15:41:46;17.30;99.90
37642;DHT22;23486;51.956;5.888;2022-10-16T15:44:20;17.20;99.90
37642;DHT22;23486;51.956;5.888;2022-10-16T15:46:46;17.20;99.90
37642;DHT22;23486;51.956;5.888;2022-10-16T15:49:11;17.20;99.90
37642;DHT22;23486;51.956;5.888;2022-10-16T15:51:38;17.20;99.90
37642;DHT22;23486;51.956;5.888;2022-10-16T15:54:13;17.10;99.90
37642;DHT22;23486;51.956;5.888;2022-10-16T15:56:39;17.20;99.90
37642;DHT22;23486;51.956;5.888;2022-10-16T15:59:05;17.00;99.90
37642;DHT22;23486;51.956;5.888;2022-10-16T16:01:39;17.00;99.90
37642;DHT22;23486;51.956;5.888;2022-10-16T16:04:05;16.90;99.90
37642;DHT22;23486;51.956;5.888;2022-10-16T16:06:30;16.90;99.90
37642;DHT22;23486;51.956;5.888;2022-10-16T16:08:56;16.80;99.90
37642;DHT22;23486;51.956;5.888;2022-10-16T16:11:21;16.70;99.90
37642;DHT22;23486;51.956;5.888;2022-10-16T16:13:48;16.70;99.90
37642;DHT22;23486;51.956;5.888;2022-10-16T16:16:16;16.60;99.90
37642;DHT22;23486;51.956;5.888;2022-10-16T16:18:43;16.50;99.90
37642;DHT22;23486;51.956;5.888;2022-10-16T16:21:11;16.50;99.90
37642;DHT22;23486;51.956;5.888;2022-10-16T16:23:37;16.40;99.90
37642;DHT22;23486;51.956;5.888;2022-10-16T16:26:23;16.40;99.90
37642;DHT22;23486;51.956;5.888;2022-10-16T16:28:52;16.30;99.90
37642;DHT22;23486;51.956;5.888;2022-10-16T16:31:19;16.30;99.90
37642;DHT22;23486;51.956;5.888;2022-10-16T16:33:45;16.30;99.90
37642;DHT22;23486;51.956;5.888;2022-10-16T16:36:11;16.30;99.90
37642;DHT22;23486;51.956;5.888;2022-10-16T16:38:37;16.20;99.90
37642;DHT22;23486;51.956;5.888;2022-10-16T16:41:17;16.10;99.90
37642;DHT22;23486;51.956;5.888;2022-10-16T16:43:43;16.10;99.90
37642;DHT22;23486;51.956;5.888;2022-10-16T16:46:09;16.10;99.90
37642;DHT22;23486;51.956;5.888;2022-10-16T16:48:35;16.00;99.90
37642;DHT22;23486;51.956;5.888;2022-10-16T16:51:09;16.00;99.90
37642;DHT22;23486;51.956;5.888;2022-10-16T16:53:35;16.00;99.90
37642;DHT22;23486;51.956;5.888;2022-10-16T16:56:05;15.90;99.90
37642;DHT22;23486;51.956;5.888;2022-10-16T16:58:32;15.90;99.90
37642;DHT22;23486;51.956;5.888;2022-10-16T17:00:58;15.90;99.90
37642;DHT22;23486;51.956;5.888;2022-10-16T17:03:34;15.80;99.90
37642;DHT22;23486;51.956;5.888;2022-10-16T17:06:06;15.70;99.90
37642;DHT22;23486;51.956;5.888;2022-10-16T17:08:33;15.70;99.90
37642;DHT22;23486;51.956;5.888;2022-10-16T17:10:58;15.70;99.90
37642;DHT22;23486;51.956;5.888;2022-10-16T17:13:26;15.70;99.90
37642;DHT22;23486;51.956;5.888;2022-10-16T17:15:52;15.60;99.90
37642;DHT22;23486;51.956;5.888;2022-10-16T17:18:19;15.60;99.90
37642;DHT22;23486;51.956;5.888;2022-10-16T17:20:45;15.50;99.90
37642;DHT22;23486;51.956;5.888;2022-10-16T17:23:11;15.40;99.90
37642;DHT22;23486;51.956;5.888;2022-10-16T17:25:38;15.50;99.90
37642;DHT22;23486;51.956;5.888;2022-10-16T17:28:04;15.50;99.90